createdAt,value
2019-04-29T00:02:59.114Z,41.15
2019-04-29T00:08:03.667Z,42.73
2019-04-29T00:13:17.804Z,41.83
2019-04-29T00:18:28.032Z,40.65
2019-04-29T00:23:36.182Z,46.73
2019-04-29T00:28:46.901Z,51.18
2019-04-29T00:33:57.585Z,46.88
2019-04-29T00:39:27.672Z,43.73
2019-04-29T00:45:12.014Z,44.20
2019-04-29T00:49:52.740Z,40.83
2019-04-29T00:55:16.472Z,37.15
2019-04-29T01:00:46.979Z,38.25
2019-04-29T01:05:58.691Z,32.70
2019-04-29T01:11:38.668Z,36.93
2019-04-29T01:16:22.421Z,41.35
2019-04-29T01:21:30.745Z,39.80
2019-04-29T01:27:00.054Z,38.83
2019-04-29T01:32:07.045Z,36.50
2019-04-29T01:37:21.951Z,34.18
2019-04-29T01:42:42.751Z,38.23
2019-04-29T01:47:44.239Z,35.78
2019-04-29T01:52:55.907Z,36.85
2019-04-29T01:58:00.709Z,35.63
2019-04-29T02:03:16.877Z,36.03
2019-04-29T02:14:06.709Z,37.38
2019-04-29T02:18:55.931Z,35.98
2019-04-29T02:24:09.387Z,34.33
2019-04-29T02:29:21.618Z,37.20
2019-04-29T02:34:27.858Z,38.88
2019-04-29T02:39:43.493Z,37.58
2019-04-29T02:44:57.648Z,38.05
2019-04-29T02:50:09.465Z,33.73
2019-04-29T02:55:22.651Z,40.00
2019-04-29T03:00:55.705Z,37.05
2019-04-29T03:06:08.459Z,35.35
2019-04-29T03:11:19.319Z,47.33
2019-04-29T03:16:31.104Z,41.77
2019-04-29T03:21:47.691Z,37.53
2019-04-29T03:27:00.115Z,45.28
2019-04-29T03:32:39.237Z,44.65
2019-04-29T03:37:43.324Z,39.38
2019-04-29T03:47:52.857Z,49.63
2019-04-29T03:53:47.533Z,47.00
2019-04-29T03:58:23.120Z,48.80
2019-04-29T04:03:24.365Z,48.33
2019-04-29T04:08:44.428Z,48.15
2019-04-29T04:13:59.652Z,54.33
2019-04-29T04:19:10.269Z,61.18
2019-04-29T04:24:22.845Z,57.33
2019-04-29T04:29:36.784Z,57.00
2019-04-29T04:34:55.698Z,58.13
2019-04-29T04:40:07.673Z,75.20
2019-04-29T04:45:21.021Z,108.87
2019-04-29T04:51:34.851Z,80.95
2019-04-29T04:55:39.777Z,71.72
2019-04-29T05:00:43.991Z,60.05
2019-04-29T05:05:48.226Z,57.13
2019-04-29T05:10:52.609Z,58.23
2019-04-29T05:15:56.838Z,60.98
2019-04-29T05:21:01.062Z,67.30
2019-04-29T05:26:05.373Z,188.62
2019-04-29T05:31:09.846Z,132.85
2019-04-29T05:36:33.994Z,116.17
2019-04-29T05:41:36.498Z,63.97
2019-04-29T05:46:50.969Z,84.22
2019-04-29T05:51:57.604Z,71.95
2019-04-29T05:57:02.773Z,51.88
2019-04-29T06:02:06.989Z,66.97
2019-04-29T06:07:11.217Z,78.72
2019-04-29T06:12:15.443Z,88.25
2019-04-29T06:17:19.778Z,89.00
2019-04-29T06:22:24.006Z,72.92
2019-04-29T06:27:28.265Z,79.05
2019-04-29T06:32:32.585Z,73.90
2019-04-29T06:37:37.125Z,72.62
2019-04-29T06:42:41.577Z,99.80
2019-04-29T06:47:46.014Z,104.45
2019-04-29T06:52:50.219Z,123.45
2019-04-29T06:57:54.562Z,126.10
2019-04-29T07:02:58.775Z,112.37
2019-04-29T07:08:02.998Z,107.20
2019-04-29T07:13:07.190Z,110.25
2019-04-29T07:18:11.412Z,103.35
2019-04-29T07:23:15.831Z,93.17
2019-04-29T07:28:20.067Z,91.32
2019-04-29T07:33:24.544Z,84.25
2019-04-29T07:38:40.659Z,75.85
2019-04-29T07:43:38.525Z,56.15
2019-04-29T07:48:42.071Z,56.58
2019-04-29T07:53:46.721Z,54.77
2019-04-29T07:58:51.124Z,50.35
2019-04-29T08:03:55.370Z,53.35
2019-04-29T08:09:07.058Z,44.63
2019-04-29T08:14:06.086Z,52.60
2019-04-29T08:19:10.264Z,41.30
2019-04-29T08:24:15.940Z,43.42
2019-04-29T08:29:20.389Z,45.83
2019-04-29T08:34:24.648Z,41.45
2019-04-29T08:39:29.469Z,41.42
2019-04-29T08:44:47.562Z,34.90
2019-04-29T08:49:52.150Z,39.98
2019-04-29T08:54:57.384Z,35.10
2019-04-29T09:00:01.674Z,40.25
2019-04-29T09:05:11.309Z,32.93
2019-04-29T09:10:14.875Z,33.15
2019-04-29T09:15:20.106Z,32.58
2019-04-29T09:20:24.310Z,32.78
2019-04-29T09:25:30.159Z,30.32
2019-04-29T09:30:34.364Z,29.15
2019-04-29T09:35:40.449Z,25.52
2019-04-29T09:40:59.495Z,26.12
2019-04-29T09:46:05.201Z,25.92
2019-04-29T09:51:17.173Z,23.25
2019-04-29T09:56:16.077Z,21.68
2019-04-29T10:01:33.689Z,24.85
2019-04-29T10:06:41.969Z,23.35
2019-04-29T10:11:46.222Z,23.10
2019-04-29T10:16:54.657Z,20.00
2019-04-29T10:21:58.867Z,20.72
2019-04-29T10:27:03.359Z,21.82
2019-04-29T10:32:09.293Z,21.85
2019-04-29T10:37:13.493Z,24.75
2019-04-29T10:42:19.341Z,23.10
2019-04-29T10:47:33.905Z,22.95
2019-04-29T10:52:38.678Z,24.32
2019-04-29T10:57:44.930Z,24.25
2019-04-29T11:02:51.195Z,21.23
2019-04-29T11:07:58.181Z,22.37
2019-04-29T11:13:03.047Z,21.85
2019-04-29T11:18:07.332Z,22.15
2019-04-29T11:23:31.334Z,22.00
2019-04-29T11:28:37.203Z,25.80
2019-04-29T11:33:57.870Z,22.40
2019-04-29T11:39:02.221Z,21.68
2019-04-29T11:44:06.435Z,20.95
2019-04-29T11:49:12.562Z,21.68
2019-04-29T11:54:18.068Z,20.70
2019-04-29T11:59:24.431Z,22.35
2019-04-29T12:04:33.429Z,21.37
2019-04-29T12:09:36.333Z,20.32
2019-04-29T12:14:47.881Z,21.25
2019-04-29T12:20:02.408Z,19.30
2019-04-29T12:25:07.704Z,18.00
2019-04-29T12:30:13.732Z,21.50
2019-04-29T12:35:25.011Z,20.65
2019-04-29T12:40:36.862Z,20.37
2019-04-29T12:46:00.873Z,20.23
2019-04-29T12:51:05.312Z,19.37
2019-04-29T12:56:11.326Z,21.97
2019-04-29T13:01:50.292Z,22.00
2019-04-29T13:06:49.975Z,18.73
2019-04-29T13:12:11.167Z,18.15
2019-04-29T13:17:17.254Z,19.80
2019-04-29T13:22:21.869Z,20.72
2019-04-29T13:27:26.692Z,20.00
2019-04-29T13:32:32.380Z,20.92
2019-04-29T13:37:37.169Z,21.62
2019-04-29T13:42:48.611Z,19.55
2019-04-29T13:47:52.112Z,18.55
2019-04-29T13:52:56.799Z,16.75
2019-04-29T13:58:01.127Z,20.65
2019-04-29T14:03:11.487Z,15.78
2019-04-29T14:08:15.604Z,13.48
2019-04-29T14:13:21.046Z,13.80
2019-04-29T14:18:25.633Z,13.10
2019-04-29T14:23:29.974Z,13.70
2019-04-29T14:28:34.639Z,13.83
2019-04-29T14:33:40.552Z,13.53
2019-04-29T14:38:44.763Z,14.10
2019-04-29T14:43:55.050Z,13.90
2019-04-29T14:49:06.041Z,14.50
2019-04-29T14:54:10.033Z,11.80
2019-04-29T14:59:14.463Z,16.23
2019-04-29T15:04:24.012Z,13.78
2019-04-29T15:09:28.897Z,14.83
2019-04-29T15:14:34.977Z,14.38
2019-04-29T15:19:58.985Z,12.80
2019-04-29T15:25:04.215Z,12.88
2019-04-29T15:30:09.239Z,13.15
2019-04-29T15:35:13.583Z,12.90
2019-04-29T15:40:20.750Z,15.20
2019-04-29T15:45:23.754Z,13.20
2019-04-29T15:50:28.520Z,13.68
2019-04-29T15:55:34.892Z,12.47
2019-04-29T16:00:40.651Z,12.85
2019-04-29T16:06:04.427Z,15.08
2019-04-29T16:10:57.855Z,12.68
2019-04-29T16:16:02.629Z,15.88
2019-04-29T16:21:06.870Z,14.28
2019-04-29T16:26:11.053Z,13.53
2019-04-29T16:31:15.407Z,13.78
2019-04-29T16:36:19.617Z,12.20
2019-04-29T16:41:41.022Z,11.12
2019-04-29T16:46:45.409Z,11.78
2019-04-29T16:51:53.462Z,13.05
2019-04-29T16:56:55.708Z,11.80
2019-04-29T17:01:59.924Z,11.33
2019-04-29T17:07:13.536Z,13.72
2019-04-29T17:12:10.260Z,10.32
2019-04-29T17:17:16.282Z,12.60
2019-04-29T17:22:25.990Z,11.18
2019-04-29T17:27:42.073Z,15.03
2019-04-29T17:32:49.111Z,13.55
2019-04-29T17:37:53.304Z,14.70
2019-04-29T17:43:04.814Z,14.50
2019-04-29T17:48:09.889Z,12.65
2019-04-29T17:53:17.464Z,14.18
2019-04-29T17:58:28.871Z,13.83
2019-04-29T18:03:41.507Z,13.93
2019-04-29T18:08:47.367Z,17.32
2019-04-29T18:13:52.568Z,14.85
2019-04-29T18:19:05.697Z,16.97
2019-04-29T18:24:15.331Z,12.17
2019-04-29T18:29:20.244Z,16.25
2019-04-29T18:34:25.245Z,17.12
2019-04-29T18:39:31.481Z,16.93
2019-04-29T18:44:36.048Z,13.90
2019-04-29T18:49:41.163Z,16.30
2019-04-29T18:54:47.076Z,17.40
2019-04-29T18:59:51.374Z,16.32
2019-04-29T19:04:57.825Z,14.80
2019-04-29T19:10:02.136Z,17.55
2019-04-29T19:15:11.444Z,18.73
2019-04-29T19:20:41.519Z,17.15
2019-04-29T20:03:21.204Z,19.73
2019-04-29T20:09:21.446Z,20.05
2019-04-29T20:38:56.649Z,22.05
2019-04-29T20:44:09.651Z,21.68
2019-04-29T20:49:16.404Z,23.57
2019-04-29T20:54:35.765Z,23.75
2019-04-29T20:59:42.121Z,25.20
2019-04-29T21:04:51.003Z,24.23
2019-04-29T21:09:59.887Z,25.48
2019-04-29T21:15:27.331Z,26.20
2019-04-29T21:20:35.192Z,21.35
2019-04-29T21:25:39.699Z,24.77
2019-04-29T21:30:48.110Z,23.15
2019-04-29T21:35:57.929Z,24.90
2019-04-29T21:41:21.805Z,23.60
2019-04-29T21:46:29.486Z,22.37
2019-04-29T21:51:35.518Z,24.37
2019-04-29T21:56:39.856Z,23.65
2019-04-29T22:01:47.632Z,24.55
2019-04-29T22:06:52.656Z,22.95
2019-04-29T22:11:58.227Z,26.23
2019-04-29T22:17:05.364Z,25.57
2019-04-29T22:22:24.054Z,23.85
2019-04-29T22:27:28.761Z,24.15
2019-04-29T22:32:40.748Z,22.70
2019-04-29T22:37:49.522Z,20.65
2019-04-29T22:43:04.577Z,19.80
2019-04-29T22:48:14.310Z,19.90
2019-04-29T22:53:15.142Z,22.93
2019-04-29T22:58:20.078Z,19.50
2019-04-29T23:03:24.381Z,21.07
2019-04-29T23:08:38.056Z,19.55
2019-04-29T23:13:41.529Z,19.77
2019-04-29T23:18:48.484Z,20.02
2019-04-29T23:24:13.280Z,18.77
2019-04-29T23:29:15.738Z,15.48
2019-04-29T23:34:27.800Z,16.05
2019-04-29T23:39:31.395Z,13.50
2019-04-29T23:44:37.724Z,15.70
2019-04-29T23:49:46.743Z,13.70
2019-04-29T23:54:52.539Z,13.40
